createdAt,value
2022-11-17T00:01:08.601Z,97460.08
2022-11-17T00:06:09.714Z,97458.13
2022-11-17T00:11:11.079Z,97453.41
2022-11-17T00:16:17.335Z,97447.50
2022-11-17T00:21:18.833Z,97447.09
2022-11-17T00:26:24.602Z,97450.13
2022-11-17T00:31:48.526Z,97449.65
2022-11-17T00:36:52.243Z,97455.89
2022-11-17T00:41:53.476Z,97455.43
2022-11-17T00:46:54.739Z,97452.82
2022-11-17T00:51:57.229Z,97446.34
2022-11-17T00:56:58.391Z,97448.35
2022-11-17T01:01:59.686Z,97450.12
2022-11-17T01:07:01.073Z,97454.05
2022-11-17T01:12:02.421Z,97449.55
2022-11-17T01:17:03.649Z,97440.55
2022-11-17T01:22:05.009Z,97433.20
2022-11-17T01:27:06.082Z,97441.71
2022-11-17T01:32:07.237Z,97449.39
2022-11-17T01:37:20.624Z,97442.84
2022-11-17T01:42:24.298Z,97441.85
2022-11-17T01:47:57.683Z,97436.27
2022-11-17T01:53:04.939Z,97432.77
2022-11-17T01:58:10.590Z,97434.11
2022-11-17T02:03:12.542Z,97443.53
2022-11-17T02:08:15.413Z,97448.00
2022-11-17T02:13:16.930Z,97446.71
2022-11-17T02:18:18.636Z,97442.27
2022-11-17T02:23:47.967Z,97435.78
2022-11-17T02:28:59.860Z,97430.21
2022-11-17T02:34:24.298Z,97428.73
2022-11-17T02:39:41.510Z,97428.22
2022-11-17T02:44:52.117Z,97424.39
2022-11-17T02:49:59.782Z,97425.94
2022-11-17T02:55:02.255Z,97423.66
2022-11-17T03:00:10.438Z,97418.44
2022-11-17T03:05:22.557Z,97417.20
2022-11-17T03:10:32.461Z,97418.11
2022-11-17T03:15:54.765Z,97424.75
2022-11-17T03:21:09.735Z,97420.91
2022-11-17T03:26:15.179Z,97413.98
2022-11-17T03:31:18.624Z,97408.34
2022-11-17T03:36:25.522Z,97408.67
2022-11-17T03:41:31.049Z,97411.69
2022-11-17T03:46:36.411Z,97407.29
2022-11-17T03:51:37.779Z,97414.39
2022-11-17T03:57:00.499Z,97420.35
2022-11-17T04:02:01.969Z,97415.19
2022-11-17T04:07:03.308Z,97411.91
2022-11-17T04:12:23.450Z,97410.31
2022-11-17T04:17:24.537Z,97419.54
2022-11-17T04:22:25.609Z,97414.48
2022-11-17T04:27:49.657Z,97409.46
2022-11-17T04:32:50.730Z,97414.36
2022-11-17T04:37:51.907Z,97422.52
2022-11-17T04:42:53.075Z,97423.34
2022-11-17T04:47:54.152Z,97425.21
2022-11-17T04:52:55.197Z,97432.47
2022-11-17T04:57:56.340Z,97433.57
2022-11-17T05:02:57.509Z,97436.11
2022-11-17T05:07:58.774Z,97433.54
2022-11-17T05:13:18.869Z,97429.64
2022-11-17T05:18:20.031Z,97424.52
2022-11-17T05:23:39.725Z,97419.98
2022-11-17T05:28:41.296Z,97420.52
2022-11-17T05:33:48.193Z,97427.59
2022-11-17T05:38:49.865Z,97428.38
2022-11-17T05:43:51.637Z,97440.66
2022-11-17T05:48:53.042Z,97443.09
2022-11-17T05:53:54.168Z,97445.80
2022-11-17T05:59:02.557Z,97450.98
2022-11-17T06:04:06.850Z,97461.76
2022-11-17T06:09:07.938Z,97465.82
2022-11-17T06:14:09.044Z,97467.71
2022-11-17T06:19:18.096Z,97468.74
2022-11-17T06:24:19.717Z,97462.85
2022-11-17T06:29:20.960Z,97459.62
2022-11-17T06:34:22.068Z,97456.63
2022-11-17T06:39:23.247Z,97458.42
2022-11-17T06:44:24.320Z,97459.67
2022-11-17T06:49:25.419Z,97460.95
2022-11-17T06:54:26.790Z,97453.47
2022-11-17T06:59:27.907Z,97448.27
2022-11-17T07:04:29.007Z,97453.31
2022-11-17T07:09:30.286Z,97455.11
2022-11-17T07:14:31.408Z,97455.95
2022-11-17T07:19:32.788Z,97463.97
2022-11-17T07:24:34.009Z,97468.11
2022-11-17T07:29:35.272Z,97470.18
2022-11-17T07:34:36.429Z,97482.63
2022-11-17T07:39:37.690Z,97489.23
2022-11-17T07:44:38.859Z,97494.55
2022-11-17T07:49:40.119Z,97500.22
2022-11-17T07:54:41.445Z,97502.05
2022-11-17T07:59:42.633Z,97503.35
2022-11-17T08:04:43.804Z,97501.20
2022-11-17T08:09:44.963Z,97501.30
2022-11-17T08:14:46.941Z,97500.70
2022-11-17T08:19:48.101Z,97505.05
2022-11-17T08:24:49.368Z,97507.44
2022-11-17T08:29:50.527Z,97511.73
2022-11-17T08:34:51.689Z,97518.38
2022-11-17T08:39:52.869Z,97511.67
2022-11-17T08:44:54.118Z,97505.46
2022-11-17T08:49:55.381Z,97498.52
2022-11-17T08:54:57.290Z,97505.23
2022-11-17T08:59:58.609Z,97507.52
2022-11-17T09:04:59.772Z,97516.54
2022-11-17T09:10:01.646Z,97521.11
2022-11-17T09:15:04.546Z,97518.40
2022-11-17T09:20:06.537Z,97513.88
2022-11-17T09:25:13.189Z,97516.85
2022-11-17T09:30:15.152Z,97513.35
2022-11-17T09:35:17.694Z,97523.43
2022-11-17T09:40:20.542Z,97527.23
2022-11-17T09:45:30.996Z,97523.79
2022-11-17T09:50:37.967Z,97524.18
2022-11-17T09:55:40.351Z,97533.83
2022-11-17T10:00:46.712Z,97539.52
2022-11-17T10:05:48.721Z,97536.79
2022-11-17T10:10:51.528Z,97537.63
2022-11-17T10:16:02.926Z,97529.71
2022-11-17T10:21:06.100Z,97528.58
2022-11-17T10:26:12.816Z,97525.85
2022-11-17T10:31:16.746Z,97519.77
2022-11-17T10:36:30.905Z,97519.34
2022-11-17T10:41:36.989Z,97519.83
2022-11-17T10:47:23.316Z,97514.36
2022-11-17T10:52:24.461Z,97520.66
2022-11-17T10:57:26.759Z,97519.13
2022-11-17T11:02:36.226Z,97515.86
2022-11-17T11:07:38.871Z,97507.70
2022-11-17T11:13:18.566Z,97497.97
2022-11-17T11:18:20.644Z,97509.27
2022-11-17T11:23:24.878Z,97514.92
2022-11-17T11:28:35.253Z,97522.66
2022-11-17T11:33:41.064Z,97521.00
2022-11-17T11:39:20.486Z,97526.46
2022-11-17T11:44:40.076Z,97527.10
2022-11-17T11:49:50.243Z,97524.09
2022-11-17T11:55:23.766Z,97528.78
2022-11-17T12:00:24.951Z,97538.04
2022-11-17T12:05:28.951Z,97528.55
2022-11-17T12:10:33.593Z,97526.08
2022-11-17T12:15:36.086Z,97531.42
2022-11-17T12:20:50.868Z,97534.91
2022-11-17T12:25:56.394Z,97538.77
2022-11-17T12:31:05.058Z,97535.30
2022-11-17T12:36:30.404Z,97535.98
2022-11-17T12:41:54.884Z,97541.09
2022-11-17T12:47:13.674Z,97538.22
2022-11-17T12:52:29.274Z,97532.45
2022-11-17T12:57:33.914Z,97529.69
2022-11-17T13:03:08.253Z,97548.46
2022-11-17T13:08:23.543Z,97552.34
2022-11-17T13:13:24.803Z,97557.11
2022-11-17T13:18:33.240Z,97557.48
2022-11-17T13:23:34.517Z,97548.27
2022-11-17T13:28:35.764Z,97553.38
2022-11-17T13:33:40.171Z,97549.20
2022-11-17T13:38:52.133Z,97553.70
2022-11-17T13:43:55.120Z,97553.70
2022-11-17T13:48:57.059Z,97542.40
2022-11-17T13:54:17.325Z,97534.57
2022-11-17T13:59:25.490Z,97545.25
2022-11-17T14:04:26.972Z,97554.60
2022-11-17T14:09:31.230Z,97557.52
2022-11-17T14:14:38.430Z,97548.86
2022-11-17T14:19:39.701Z,97543.98
2022-11-17T14:24:40.854Z,97550.02
2022-11-17T14:29:42.018Z,97547.65
2022-11-17T14:34:43.182Z,97539.21
2022-11-17T14:39:44.444Z,97527.20
2022-11-17T14:44:45.703Z,97518.04
2022-11-17T14:49:46.966Z,97519.27
2022-11-17T14:54:48.124Z,97513.24
2022-11-17T14:59:49.203Z,97505.38
2022-11-17T15:04:51.555Z,97500.04
2022-11-17T15:09:53.348Z,97492.24
2022-11-17T15:14:56.916Z,97501.88
2022-11-17T15:19:58.130Z,97515.46
2022-11-17T15:24:59.501Z,97509.10
2022-11-17T15:30:00.688Z,97497.80
2022-11-17T15:35:01.918Z,97490.59
2022-11-17T15:40:04.765Z,97485.11
2022-11-17T15:45:09.606Z,97490.64
2022-11-17T15:50:10.827Z,97488.05
2022-11-17T15:55:11.919Z,97490.00
2022-11-17T16:00:13.929Z,97489.27
2022-11-17T16:05:15.229Z,97502.11
2022-11-17T16:10:16.601Z,97502.73
2022-11-17T16:15:17.696Z,97495.20
2022-11-17T16:20:19.098Z,97502.39
2022-11-17T16:25:20.402Z,97503.74
2022-11-17T16:30:21.647Z,97501.17
2022-11-17T16:35:22.804Z,97499.80
2022-11-17T16:40:23.963Z,97497.70
2022-11-17T16:45:25.129Z,97504.92
2022-11-17T16:50:26.397Z,97501.20
2022-11-17T16:55:27.549Z,97502.88
2022-11-17T17:00:28.708Z,97516.42
2022-11-17T17:05:29.972Z,97519.24
2022-11-17T17:10:32.463Z,97511.56
2022-11-17T17:15:33.834Z,97502.77
2022-11-17T17:20:35.140Z,97511.80
2022-11-17T17:25:36.255Z,97517.32
2022-11-17T17:30:37.519Z,97524.11
2022-11-17T17:35:38.679Z,97520.48
2022-11-17T17:40:39.841Z,97517.13
2022-11-17T17:45:40.998Z,97496.35
2022-11-17T17:50:42.260Z,97497.77
2022-11-17T17:55:43.423Z,97504.27
2022-11-17T18:00:46.736Z,97468.05
2022-11-17T18:05:47.998Z,97470.12
2022-11-17T18:10:49.261Z,97477.25
2022-11-17T18:15:50.518Z,97462.67
2022-11-17T18:21:21.380Z,97460.82
2022-11-17T18:26:25.727Z,97450.45
2022-11-17T18:31:29.478Z,97450.73
2022-11-17T18:36:31.621Z,97448.95
2022-11-17T18:41:33.501Z,97454.35
2022-11-17T18:46:34.657Z,97477.13
2022-11-17T18:51:36.738Z,97476.84
2022-11-17T18:56:38.197Z,97482.40
2022-11-17T19:01:41.316Z,97493.73
2022-11-17T19:06:42.607Z,97491.89
2022-11-17T19:11:43.819Z,97487.13
2022-11-17T19:16:45.388Z,97485.70
2022-11-17T19:21:46.671Z,97480.09
2022-11-17T19:26:47.834Z,97479.61
2022-11-17T19:31:49.096Z,97478.83
2022-11-17T19:36:50.358Z,97480.92
2022-11-17T19:41:52.749Z,97491.83
2022-11-17T19:46:53.906Z,97497.84
2022-11-17T19:51:55.064Z,97497.64
2022-11-17T19:56:56.639Z,97505.23
2022-11-17T20:01:57.859Z,97497.06
2022-11-17T20:06:59.313Z,97486.84
2022-11-17T20:12:00.529Z,97480.40
2022-11-17T20:17:01.692Z,97480.95
2022-11-17T20:22:02.953Z,97468.88
2022-11-17T20:27:04.131Z,97461.38
2022-11-17T20:32:05.288Z,97460.73
2022-11-17T20:37:06.430Z,97460.16
2022-11-17T20:42:07.597Z,97458.66
2022-11-17T20:47:08.854Z,97457.06
2022-11-17T20:52:13.360Z,97452.13
2022-11-17T20:57:14.771Z,97446.57
2022-11-17T21:02:15.942Z,97441.20
2022-11-17T21:07:17.156Z,97438.57
2022-11-17T21:12:18.332Z,97436.67
2022-11-17T21:17:38.254Z,97434.94
2022-11-17T21:22:39.476Z,97425.09
2022-11-17T21:27:40.621Z,97418.83
2022-11-17T21:32:42.009Z,97420.80
2022-11-17T21:37:43.091Z,97410.31
2022-11-17T21:42:45.010Z,97399.59
2022-11-17T21:47:46.537Z,97401.42
2022-11-17T21:52:47.630Z,97395.84
2022-11-17T21:57:51.570Z,97398.90
2022-11-17T22:02:52.724Z,97400.52
2022-11-17T22:07:53.871Z,97393.67
2022-11-17T22:13:00.431Z,97396.69
2022-11-17T22:18:01.804Z,97388.44
2022-11-17T22:23:02.898Z,97386.68
2022-11-17T22:28:04.121Z,97390.78
2022-11-17T22:33:05.240Z,97387.02
2022-11-17T22:38:06.343Z,97380.95
2022-11-17T22:43:14.466Z,97381.93
2022-11-17T22:48:17.683Z,97373.80
2022-11-17T22:53:18.931Z,97364.20
2022-11-17T22:58:20.418Z,97356.79
2022-11-17T23:03:22.119Z,97363.50
2022-11-17T23:08:23.439Z,97367.34
2022-11-17T23:13:35.491Z,97367.58
2022-11-17T23:18:36.718Z,97366.52
2022-11-17T23:23:39.720Z,97359.75
2022-11-17T23:28:42.442Z,97354.66
2022-11-17T23:33:45.893Z,97356.90
2022-11-17T23:38:49.038Z,97362.20
2022-11-17T23:43:51.945Z,97355.23
2022-11-17T23:48:53.833Z,97358.13
2022-11-17T23:53:58.559Z,97353.92
2022-11-17T23:59:00.338Z,97359.63
